Archival Weather

Chicago O'Hare International

Chicago, Illinois (KORD)

Report from: Saturday, August 6, 2022 7:51 AM CDT
Current time: Thursday, August 18, 2022 11:35 PM CDT

Current weather
Weather history
Weather forecast

Temperature26.1°C (79.0°F)
Dew point22.2°C (72.0°F)
Winds 4 kts (2.1 m/s, 4.6 mph) West-Southwest (240°)
Visibility10 mi. (16.1 km)
Clouds Few clouds 25,000 ft. (7,620 m)
Altimeter30.08 in.Hg (1019 mB)
Relative humidity79 %
Density altitude1,462 ft. (446 m)
Sea-level pressure101.8 kPa (1018 mB, 30.06 in.Hg)
Remarks Automated weather observing station with precipitation discriminator
Flight conditions Visual Meteorological Conditions
Raw dataKORD 061251Z 24004KT 10SM FEW250 26/22 A3008 RMK AO2 SLP180 T02610222
An unhandled exception has occurred. See browser dev tools for details. Reload 🗙